KATP

Atlantis

Atlantis, Louisiana, USA
METAR KATP 260355Z AUTO 09006KT 9SM 27/23 A2993 RMK A01
Observed Flight Rules
May-26 @ 03:55 UTC (22 minutes ago)
Wind Visibility
90° at 6 knots 9 miles
Temperatures Readings
Current 27°C / 81°F
Dewpoint 23°C / 73°F
Humidity 79%
Altimeter 29.93" Hg
Pressure 1014 hPa
Elevation 62
METAR KATP 260355Z AUTO 09006KT 9SM 27/23 A2993 RMK A01
Observed Flight Rules
May-26 @ 03:55 UTC
(22 minutes ago)
Wind Visibility
90° at 6 knots 9 miles
Temperature Dewpoint
27°C / 81°F 23°C / 73°F
Humidity Altimeter Pressure
79% 29.93" Hg 1014 hPa